sensor_id;sensor_type;location;lat;lon;timestamp;pressure;altitude;pressure_sealevel;temperature;humidity
50103;BME280;35993;52.604;10.078;2023-04-06T00:00:39;101581.03;;;0.96;79.19
50103;BME280;35993;52.604;10.078;2023-04-06T00:03:05;101578.06;;;0.90;79.48
50103;BME280;35993;52.604;10.078;2023-04-06T00:05:31;101575.19;;;0.81;79.59
50103;BME280;35993;52.604;10.078;2023-04-06T00:07:58;101578.78;;;0.71;79.70
50103;BME280;35993;52.604;10.078;2023-04-06T00:10:24;101578.72;;;0.61;80.10
50103;BME280;35993;52.604;10.078;2023-04-06T00:12:51;101579.09;;;0.56;80.66
50103;BME280;35993;52.604;10.078;2023-04-06T00:15:16;101581.72;;;0.46;81.49
50103;BME280;35993;52.604;10.078;2023-04-06T00:17:42;101583.94;;;0.41;82.07
50103;BME280;35993;52.604;10.078;2023-04-06T00:20:08;101581.63;;;0.37;82.17
50103;BME280;35993;52.604;10.078;2023-04-06T00:22:34;101572.66;;;0.38;82.37
50103;BME280;35993;52.604;10.078;2023-04-06T00:24:59;101575.31;;;0.38;82.17
50103;BME280;35993;52.604;10.078;2023-04-06T00:27:26;101573.50;;;0.38;82.44
50103;BME280;35993;52.604;10.078;2023-04-06T00:29:52;101575.59;;;0.35;82.27
50103;BME280;35993;52.604;10.078;2023-04-06T00:32:18;101569.84;;;0.39;82.59
50103;BME280;35993;52.604;10.078;2023-04-06T00:34:43;101568.75;;;0.42;82.21
50103;BME280;35993;52.604;10.078;2023-04-06T00:37:11;101569.00;;;0.39;82.07
50103;BME280;35993;52.604;10.078;2023-04-06T00:39:36;101570.81;;;0.38;82.32
50103;BME280;35993;52.604;10.078;2023-04-06T00:42:13;101572.97;;;0.44;82.12
50103;BME280;35993;52.604;10.078;2023-04-06T00:44:41;101559.38;;;0.47;82.40
50103;BME280;35993;52.604;10.078;2023-04-06T00:47:07;101559.94;;;0.51;81.45
50103;BME280;35993;52.604;10.078;2023-04-06T00:49:33;101558.50;;;0.47;81.24
50103;BME280;35993;52.604;10.078;2023-04-06T00:51:59;101547.38;;;0.42;81.05
50103;BME280;35993;52.604;10.078;2023-04-06T00:54:26;101556.13;;;0.44;80.75
50103;BME280;35993;52.604;10.078;2023-04-06T00:56:52;101554.09;;;0.36;80.55
50103;BME280;35993;52.604;10.078;2023-04-06T00:59:19;101548.66;;;0.26;81.63
50103;BME280;35993;52.604;10.078;2023-04-06T01:01:47;101559.47;;;0.25;81.45
50103;BME280;35993;52.604;10.078;2023-04-06T01:04:30;101547.94;;;0.24;81.19
50103;BME280;35993;52.604;10.078;2023-04-06T01:06:57;101547.47;;;0.19;81.99
50103;BME280;35993;52.604;10.078;2023-04-06T01:09:29;101547.28;;;0.11;82.60
50103;BME280;35993;52.604;10.078;2023-04-06T01:11:57;101551.66;;;0.12;83.06
50103;BME280;35993;52.604;10.078;2023-04-06T01:14:28;101552.63;;;0.11;82.91
50103;BME280;35993;52.604;10.078;2023-04-06T01:16:59;101538.16;;;0.13;82.43
50103;BME280;35993;52.604;10.078;2023-04-06T01:19:31;101539.41;;;0.09;82.18
50103;BME280;35993;52.604;10.078;2023-04-06T01:21:58;101539.91;;;0.03;82.87
50103;BME280;35993;52.604;10.078;2023-04-06T01:24:30;101535.69;;;0.01;82.81
50103;BME280;35993;52.604;10.078;2023-04-06T01:27:18;101539.59;;;-0.04;82.97
50103;BME280;35993;52.604;10.078;2023-04-06T01:30:03;101541.66;;;-0.07;83.56
50103;BME280;35993;52.604;10.078;2023-04-06T01:32:39;101534.00;;;-0.12;83.88
50103;BME280;35993;52.604;10.078;2023-04-06T01:35:06;101534.16;;;-0.13;84.22
50103;BME280;35993;52.604;10.078;2023-04-06T01:37:36;101537.31;;;-0.20;85.10
50103;BME280;35993;52.604;10.078;2023-04-06T01:40:05;101534.78;;;-0.21;85.00
50103;BME280;35993;52.604;10.078;2023-04-06T01:42:40;101534.78;;;-0.21;85.14
50103;BME280;35993;52.604;10.078;2023-04-06T01:45:09;101531.28;;;-0.22;85.13
50103;BME280;35993;52.604;10.078;2023-04-06T01:47:35;101533.81;;;-0.20;85.64
50103;BME280;35993;52.604;10.078;2023-04-06T01:50:01;101535.63;;;-0.21;85.75
50103;BME280;35993;52.604;10.078;2023-04-06T01:52:29;101526.03;;;-0.23;85.67
50103;BME280;35993;52.604;10.078;2023-04-06T01:54:54;101531.38;;;-0.23;85.50
50103;BME280;35993;52.604;10.078;2023-04-06T01:57:40;101525.22;;;-0.24;85.40
50103;BME280;35993;52.604;10.078;2023-04-06T02:00:14;101519.41;;;-0.29;85.55
50103;BME280;35993;52.604;10.078;2023-04-06T02:02:43;101520.72;;;-0.35;84.79
50103;BME280;35993;52.604;10.078;2023-04-06T02:05:16;101522.69;;;-0.37;84.99
50103;BME280;35993;52.604;10.078;2023-04-06T02:07:42;101519.16;;;-0.37;84.78
50103;BME280;35993;52.604;10.078;2023-04-06T02:10:12;101528.88;;;-0.36;84.70
50103;BME280;35993;52.604;10.078;2023-04-06T02:12:40;101518.78;;;-0.32;84.84
50103;BME280;35993;52.604;10.078;2023-04-06T02:15:09;101518.94;;;-0.34;84.64
50103;BME280;35993;52.604;10.078;2023-04-06T02:17:35;101520.16;;;-0.38;84.47
50103;BME280;35993;52.604;10.078;2023-04-06T02:20:02;101520.88;;;-0.36;84.23
50103;BME280;35993;52.604;10.078;2023-04-06T02:22:28;101523.06;;;-0.41;84.69
50103;BME280;35993;52.604;10.078;2023-04-06T02:24:54;101517.13;;;-0.45;84.99
50103;BME280;35993;52.604;10.078;2023-04-06T02:27:19;101515.47;;;-0.46;85.18
50103;BME280;35993;52.604;10.078;2023-04-06T02:29:46;101517.25;;;-0.46;85.05
50103;BME280;35993;52.604;10.078;2023-04-06T02:32:13;101512.41;;;-0.53;85.10
50103;BME280;35993;52.604;10.078;2023-04-06T02:34:38;101512.69;;;-0.56;85.29
50103;BME280;35993;52.604;10.078;2023-04-06T02:37:04;101510.28;;;-0.59;85.72
50103;BME280;35993;52.604;10.078;2023-04-06T02:39:30;101502.13;;;-0.57;86.02
50103;BME280;35993;52.604;10.078;2023-04-06T02:41:55;101512.53;;;-0.54;86.29
50103;BME280;35993;52.604;10.078;2023-04-06T02:44:24;101504.94;;;-0.59;86.07
50103;BME280;35993;52.604;10.078;2023-04-06T02:46:50;101502.28;;;-0.59;86.11
50103;BME280;35993;52.604;10.078;2023-04-06T02:49:16;101500.69;;;-0.61;86.17
50103;BME280;35993;52.604;10.078;2023-04-06T02:51:43;101503.59;;;-0.64;85.86
50103;BME280;35993;52.604;10.078;2023-04-06T02:54:22;101511.47;;;-0.63;85.70
50103;BME280;35993;52.604;10.078;2023-04-06T02:56:49;101503.38;;;-0.61;85.65
50103;BME280;35993;52.604;10.078;2023-04-06T02:59:14;101503.59;;;-0.64;85.76
50103;BME280;35993;52.604;10.078;2023-04-06T03:01:46;101506.53;;;-0.68;86.06
50103;BME280;35993;52.604;10.078;2023-04-06T03:04:12;101503.25;;;-0.71;86.51
50103;BME280;35993;52.604;10.078;2023-04-06T03:06:39;101504.22;;;-0.72;86.91
50103;BME280;35993;52.604;10.078;2023-04-06T03:09:15;101507.97;;;-0.75;87.17
50103;BME280;35993;52.604;10.078;2023-04-06T03:11:43;101500.34;;;-0.79;87.03
50103;BME280;35993;52.604;10.078;2023-04-06T03:14:09;101505.56;;;-0.78;87.23
50103;BME280;35993;52.604;10.078;2023-04-06T03:16:34;101504.00;;;-0.80;87.37
50103;BME280;35993;52.604;10.078;2023-04-06T03:19:01;101504.09;;;-0.82;87.51
50103;BME280;35993;52.604;10.078;2023-04-06T03:21:30;101503.63;;;-0.87;87.48
50103;BME280;35993;52.604;10.078;2023-04-06T03:23:56;101511.13;;;-0.92;87.68
50103;BME280;35993;52.604;10.078;2023-04-06T03:26:22;101507.63;;;-0.93;87.70
50103;BME280;35993;52.604;10.078;2023-04-06T03:28:50;101506.41;;;-1.00;87.86
50103;BME280;35993;52.604;10.078;2023-04-06T03:31:16;101507.03;;;-0.96;87.45
50103;BME280;35993;52.604;10.078;2023-04-06T03:33:56;101509.09;;;-1.00;87.36
50103;BME280;35993;52.604;10.078;2023-04-06T03:36:25;101510.03;;;-1.01;87.57
50103;BME280;35993;52.604;10.078;2023-04-06T03:38:54;101511.63;;;-0.99;87.68
50103;BME280;35993;52.604;10.078;2023-04-06T03:41:20;101507.50;;;-1.03;87.49
50103;BME280;35993;52.604;10.078;2023-04-06T03:43:54;101510.66;;;-1.09;87.38
50103;BME280;35993;52.604;10.078;2023-04-06T03:46:20;101504.97;;;-1.04;87.63
50103;BME280;35993;52.604;10.078;2023-04-06T03:48:50;101509.69;;;-1.08;87.83
50103;BME280;35993;52.604;10.078;2023-04-06T03:51:18;101506.06;;;-1.07;88.07
50103;BME280;35993;52.604;10.078;2023-04-06T03:53:44;101501.56;;;-1.06;88.11
50103;BME280;35993;52.604;10.078;2023-04-06T03:56:10;101504.34;;;-1.08;87.80
50103;BME280;35993;52.604;10.078;2023-04-06T03:58:36;101508.00;;;-1.09;88.00
50103;BME280;35993;52.604;10.078;2023-04-06T04:01:01;101515.88;;;-1.07;88.07
50103;BME280;35993;52.604;10.078;2023-04-06T04:03:27;101515.03;;;-1.08;88.07
50103;BME280;35993;52.604;10.078;2023-04-06T04:05:53;101515.03;;;-1.08;88.06
50103;BME280;35993;52.604;10.078;2023-04-06T04:08:21;101513.69;;;-1.13;88.15
50103;BME280;35993;52.604;10.078;2023-04-06T04:10:47;101516.72;;;-1.07;88.24
50103;BME280;35993;52.604;10.078;2023-04-06T04:13:12;101510.91;;;-1.12;88.17
50103;BME280;35993;52.604;10.078;2023-04-06T04:15:40;101512.00;;;-1.14;88.39
50103;BME280;35993;52.604;10.078;2023-04-06T04:18:06;101516.00;;;-1.20;88.45
50103;BME280;35993;52.604;10.078;2023-04-06T04:20:32;101515.63;;;-1.27;88.77
50103;BME280;35993;52.604;10.078;2023-04-06T04:22:58;101523.47;;;-1.25;89.41
50103;BME280;35993;52.604;10.078;2023-04-06T04:25:23;101522.66;;;-1.26;89.63
50103;BME280;35993;52.604;10.078;2023-04-06T04:27:49;101514.31;;;-1.21;89.77
50103;BME280;35993;52.604;10.078;2023-04-06T04:30:16;101514.44;;;-1.23;89.93
50103;BME280;35993;52.604;10.078;2023-04-06T04:32:41;101516.97;;;-1.21;89.80
50103;BME280;35993;52.604;10.078;2023-04-06T04:35:09;101514.66;;;-1.26;89.80
50103;BME280;35993;52.604;10.078;2023-04-06T04:37:38;101510.06;;;-1.24;90.09
50103;BME280;35993;52.604;10.078;2023-04-06T04:40:04;101509.19;;;-1.24;90.35
50103;BME280;35993;52.604;10.078;2023-04-06T04:42:37;101514.78;;;-1.27;90.19
50103;BME280;35993;52.604;10.078;2023-04-06T04:45:06;101508.25;;;-1.23;89.86
50103;BME280;35993;52.604;10.078;2023-04-06T04:47:36;101505.69;;;-1.25;90.03
50103;BME280;35993;52.604;10.078;2023-04-06T04:50:03;101513.44;;;-1.22;90.21
50103;BME280;35993;52.604;10.078;2023-04-06T04:52:30;101509.09;;;-1.23;90.06
50103;BME280;35993;52.604;10.078;2023-04-06T04:55:18;101511.88;;;-1.24;90.37
50103;BME280;35993;52.604;10.078;2023-04-06T04:57:46;101510.06;;;-1.24;90.59
50103;BME280;35993;52.604;10.078;2023-04-06T05:00:13;101508.97;;;-1.21;90.79
50103;BME280;35993;52.604;10.078;2023-04-06T05:02:42;101506.94;;;-1.18;90.77
50103;BME280;35993;52.604;10.078;2023-04-06T05:05:20;101510.44;;;-1.17;90.50
50103;BME280;35993;52.604;10.078;2023-04-06T05:07:46;101510.06;;;-1.12;90.03
50103;BME280;35993;52.604;10.078;2023-04-06T05:10:21;101508.84;;;-1.08;89.86
50103;BME280;35993;52.604;10.078;2023-04-06T05:12:54;101512.63;;;-1.11;89.66
50103;BME280;35993;52.604;10.078;2023-04-06T05:15:19;101510.56;;;-1.07;90.09
50103;BME280;35993;52.604;10.078;2023-04-06T05:17:46;101510.78;;;-0.99;89.61
50103;BME280;35993;52.604;10.078;2023-04-06T05:20:17;101514.41;;;-0.89;89.43
50103;BME280;35993;52.604;10.078;2023-04-06T05:22:47;101512.00;;;-0.80;89.65
50103;BME280;35993;52.604;10.078;2023-04-06T05:25:14;101512.56;;;-0.77;88.85
50103;BME280;35993;52.604;10.078;2023-04-06T05:27:40;101508.59;;;-0.71;88.78
50103;BME280;35993;52.604;10.078;2023-04-06T05:30:16;101509.28;;;-0.58;88.51
50103;BME280;35993;52.604;10.078;2023-04-06T05:32:44;101508.66;;;-0.50;87.95
50103;BME280;35993;52.604;10.078;2023-04-06T05:35:10;101511.16;;;-0.37;87.68
50103;BME280;35993;52.604;10.078;2023-04-06T05:37:37;101512.38;;;-0.30;86.98
50103;BME280;35993;52.604;10.078;2023-04-06T05:40:04;101510.25;;;-0.15;86.67
50103;BME280;35993;52.604;10.078;2023-04-06T05:42:42;101506.44;;;-0.01;85.97
50103;BME280;35993;52.604;10.078;2023-04-06T05:45:10;101504.69;;;0.09;85.80
50103;BME280;35993;52.604;10.078;2023-04-06T05:47:39;101496.63;;;0.21;85.15
50103;BME280;35993;52.604;10.078;2023-04-06T05:50:16;101499.09;;;0.34;85.02
50103;BME280;35993;52.604;10.078;2023-04-06T05:52:42;101503.53;;;0.44;84.42
50103;BME280;35993;52.604;10.078;2023-04-06T05:55:10;101497.66;;;0.51;84.12
50103;BME280;35993;52.604;10.078;2023-04-06T05:57:38;101501.38;;;0.59;83.58
50103;BME280;35993;52.604;10.078;2023-04-06T06:00:05;101504.94;;;0.70;83.28
50103;BME280;35993;52.604;10.078;2023-04-06T06:02:38;101498.97;;;0.87;82.72
50103;BME280;35993;52.604;10.078;2023-04-06T06:05:05;101504.69;;;1.04;82.26
50103;BME280;35993;52.604;10.078;2023-04-06T06:07:32;101501.44;;;1.10;81.79
50103;BME280;35993;52.604;10.078;2023-04-06T06:10:00;101499.63;;;1.20;81.04
50103;BME280;35993;52.604;10.078;2023-04-06T06:12:31;101513.91;;;1.30;81.50
50103;BME280;35993;52.604;10.078;2023-04-06T06:14:57;101505.47;;;1.35;80.57
50103;BME280;35993;52.604;10.078;2023-04-06T06:17:24;101507.88;;;1.48;80.35
50103;BME280;35993;52.604;10.078;2023-04-06T06:19:51;101506.06;;;1.58;80.44
50103;BME280;35993;52.604;10.078;2023-04-06T06:22:17;101507.78;;;1.69;80.02
50103;BME280;35993;52.604;10.078;2023-04-06T06:24:45;101507.38;;;1.84;79.69
50103;BME280;35993;52.604;10.078;2023-04-06T06:27:12;101510.91;;;1.94;79.94
50103;BME280;35993;52.604;10.078;2023-04-06T06:29:39;101503.13;;;2.01;78.67
50103;BME280;35993;52.604;10.078;2023-04-06T06:32:05;101497.06;;;2.08;78.49
50103;BME280;35993;52.604;10.078;2023-04-06T06:34:32;101497.63;;;2.22;78.27
50103;BME280;35993;52.604;10.078;2023-04-06T06:37:01;101498.47;;;2.32;77.77
50103;BME280;35993;52.604;10.078;2023-04-06T06:39:27;101499.16;;;2.44;77.72
50103;BME280;35993;52.604;10.078;2023-04-06T06:41:53;101493.88;;;2.62;77.60
50103;BME280;35993;52.604;10.078;2023-04-06T06:44:23;101491.88;;;2.74;76.12
50103;BME280;35993;52.604;10.078;2023-04-06T06:46:49;101497.59;;;2.89;76.36
50103;BME280;35993;52.604;10.078;2023-04-06T06:49:15;101496.34;;;2.93;75.89
50103;BME280;35993;52.604;10.078;2023-04-06T06:51:41;101494.84;;;3.08;76.08
50103;BME280;35993;52.604;10.078;2023-04-06T06:54:06;101501.84;;;3.19;74.65
50103;BME280;35993;52.604;10.078;2023-04-06T06:56:32;101496.19;;;3.22;73.84
50103;BME280;35993;52.604;10.078;2023-04-06T06:58:58;101495.28;;;3.32;73.46
50103;BME280;35993;52.604;10.078;2023-04-06T07:01:23;101484.63;;;3.40;72.81
50103;BME280;35993;52.604;10.078;2023-04-06T07:03:49;101485.03;;;3.45;73.01
50103;BME280;35993;52.604;10.078;2023-04-06T07:06:15;101482.38;;;3.63;72.26
50103;BME280;35993;52.604;10.078;2023-04-06T07:08:41;101482.53;;;3.80;72.61
50103;BME280;35993;52.604;10.078;2023-04-06T07:11:07;101474.41;;;3.89;72.02
50103;BME280;35993;52.604;10.078;2023-04-06T07:13:33;101482.13;;;3.92;72.19
50103;BME280;35993;52.604;10.078;2023-04-06T07:16:00;101485.91;;;4.00;71.71
50103;BME280;35993;52.604;10.078;2023-04-06T07:18:27;101478.06;;;4.06;70.31
50103;BME280;35993;52.604;10.078;2023-04-06T07:20:52;101488.91;;;4.15;70.21
50103;BME280;35993;52.604;10.078;2023-04-06T07:23:18;101474.97;;;4.19;70.28
50103;BME280;35993;52.604;10.078;2023-04-06T07:25:44;101478.41;;;4.30;69.98
50103;BME280;35993;52.604;10.078;2023-04-06T07:28:10;101481.38;;;4.45;69.84
50103;BME280;35993;52.604;10.078;2023-04-06T07:30:37;101477.59;;;4.55;69.33
50103;BME280;35993;52.604;10.078;2023-04-06T07:33:03;101475.78;;;4.64;68.66
50103;BME280;35993;52.604;10.078;2023-04-06T07:35:29;101471.19;;;4.56;67.64
50103;BME280;35993;52.604;10.078;2023-04-06T07:37:56;101472.06;;;4.57;68.84
50103;BME280;35993;52.604;10.078;2023-04-06T07:40:22;101475.09;;;4.62;68.06
50103;BME280;35993;52.604;10.078;2023-04-06T07:42:50;101472.00;;;4.75;67.65
50103;BME280;35993;52.604;10.078;2023-04-06T07:45:16;101467.00;;;4.88;67.14
50103;BME280;35993;52.604;10.078;2023-04-06T07:47:42;101463.13;;;4.91;66.54
50103;BME280;35993;52.604;10.078;2023-04-06T07:50:08;101470.63;;;5.05;66.69
50103;BME280;35993;52.604;10.078;2023-04-06T07:52:34;101462.75;;;5.20;66.26
50103;BME280;35993;52.604;10.078;2023-04-06T07:55:01;101464.19;;;5.41;65.90
50103;BME280;35993;52.604;10.078;2023-04-06T07:57:28;101466.47;;;5.28;65.47
50103;BME280;35993;52.604;10.078;2023-04-06T07:59:53;101466.72;;;5.43;65.78
50103;BME280;35993;52.604;10.078;2023-04-06T08:02:19;101462.69;;;5.63;65.53
50103;BME280;35993;52.604;10.078;2023-04-06T08:04:45;101457.50;;;5.62;64.42
50103;BME280;35993;52.604;10.078;2023-04-06T08:07:11;101454.63;;;5.71;64.33
50103;BME280;35993;52.604;10.078;2023-04-06T08:09:36;101452.44;;;5.75;64.35
50103;BME280;35993;52.604;10.078;2023-04-06T08:12:02;101460.69;;;5.82;64.57
50103;BME280;35993;52.604;10.078;2023-04-06T08:14:28;101459.53;;;5.93;64.59
50103;BME280;35993;52.604;10.078;2023-04-06T08:16:53;101448.09;;;6.07;63.38
50103;BME280;35993;52.604;10.078;2023-04-06T08:19:19;101453.84;;;6.04;62.66
50103;BME280;35993;52.604;10.078;2023-04-06T08:21:45;101439.34;;;6.21;62.68
50103;BME280;35993;52.604;10.078;2023-04-06T08:24:11;101444.56;;;6.23;62.06
50103;BME280;35993;52.604;10.078;2023-04-06T08:26:37;101442.00;;;6.38;62.68
50103;BME280;35993;52.604;10.078;2023-04-06T08:29:03;101434.94;;;6.29;62.45
50103;BME280;35993;52.604;10.078;2023-04-06T08:31:30;101441.34;;;6.36;62.27
50103;BME280;35993;52.604;10.078;2023-04-06T08:33:56;101438.75;;;6.51;61.50
50103;BME280;35993;52.604;10.078;2023-04-06T08:36:21;101434.84;;;6.70;61.57
50103;BME280;35993;52.604;10.078;2023-04-06T08:38:48;101446.34;;;6.64;62.08
50103;BME280;35993;52.604;10.078;2023-04-06T08:41:15;101439.84;;;6.81;61.56
50103;BME280;35993;52.604;10.078;2023-04-06T08:43:53;101436.91;;;6.99;61.13
50103;BME280;35993;52.604;10.078;2023-04-06T08:46:21;101432.88;;;7.03;60.25
50103;BME280;35993;52.604;10.078;2023-04-06T08:48:48;101425.25;;;7.07;59.59
50103;BME280;35993;52.604;10.078;2023-04-06T08:51:15;101425.34;;;7.22;59.54
50103;BME280;35993;52.604;10.078;2023-04-06T08:53:41;101417.84;;;7.32;58.10
50103;BME280;35993;52.604;10.078;2023-04-06T08:56:07;101409.66;;;7.49;57.02
50103;BME280;35993;52.604;10.078;2023-04-06T08:58:35;101415.66;;;7.59;56.36
50103;BME280;35993;52.604;10.078;2023-04-06T09:01:06;101413.53;;;7.69;55.90
50103;BME280;35993;52.604;10.078;2023-04-06T09:03:33;101404.59;;;7.69;55.42
50103;BME280;35993;52.604;10.078;2023-04-06T09:06:00;101410.81;;;7.93;55.17
50103;BME280;35993;52.604;10.078;2023-04-06T09:08:26;101404.97;;;8.04;54.75
50103;BME280;35993;52.604;10.078;2023-04-06T09:10:52;101403.75;;;8.07;54.09
50103;BME280;35993;52.604;10.078;2023-04-06T09:13:17;101408.72;;;8.18;54.20
50103;BME280;35993;52.604;10.078;2023-04-06T09:15:43;101413.22;;;8.26;54.52
50103;BME280;35993;52.604;10.078;2023-04-06T09:18:09;101406.78;;;8.27;53.57
50103;BME280;35993;52.604;10.078;2023-04-06T09:20:34;101396.66;;;8.06;53.44
50103;BME280;35993;52.604;10.078;2023-04-06T09:23:00;101408.19;;;8.23;53.90
50103;BME280;35993;52.604;10.078;2023-04-06T09:25:26;101412.41;;;8.40;53.98
50103;BME280;35993;52.604;10.078;2023-04-06T09:28:03;101392.38;;;8.49;51.54
50103;BME280;35993;52.604;10.078;2023-04-06T09:30:29;101380.25;;;8.60;50.71
50103;BME280;35993;52.604;10.078;2023-04-06T09:32:56;101379.47;;;8.81;50.80
50103;BME280;35993;52.604;10.078;2023-04-06T09:35:23;101377.50;;;8.90;49.91
50103;BME280;35993;52.604;10.078;2023-04-06T09:37:50;101376.38;;;8.99;49.92
50103;BME280;35993;52.604;10.078;2023-04-06T09:40:16;101376.63;;;9.05;49.92
50103;BME280;35993;52.604;10.078;2023-04-06T09:42:46;101375.22;;;9.09;49.51
50103;BME280;35993;52.604;10.078;2023-04-06T09:45:12;101375.28;;;9.15;49.35
50103;BME280;35993;52.604;10.078;2023-04-06T09:47:40;101369.16;;;9.07;48.93
50103;BME280;35993;52.604;10.078;2023-04-06T09:50:09;101364.28;;;9.17;47.66
50103;BME280;35993;52.604;10.078;2023-04-06T09:52:50;101360.94;;;9.37;47.76
50103;BME280;35993;52.604;10.078;2023-04-06T09:55:23;101360.16;;;9.43;47.41
50103;BME280;35993;52.604;10.078;2023-04-06T10:01:15;101345.56;;;9.65;46.75
50103;BME280;35993;52.604;10.078;2023-04-06T10:03:54;101351.09;;;9.79;46.89
50103;BME280;35993;52.604;10.078;2023-04-06T10:06:23;101350.91;;;9.80;46.64
50103;BME280;35993;52.604;10.078;2023-04-06T10:08:52;101347.16;;;9.81;46.65
50103;BME280;35993;52.604;10.078;2023-04-06T10:11:20;101342.47;;;9.97;45.93
50103;BME280;35993;52.604;10.078;2023-04-06T10:13:49;101350.41;;;9.98;45.53
50103;BME280;35993;52.604;10.078;2023-04-06T10:16:16;101340.69;;;10.11;45.40
50103;BME280;35993;52.604;10.078;2023-04-06T10:18:48;101330.06;;;10.16;44.60
50103;BME280;35993;52.604;10.078;2023-04-06T10:21:19;101327.59;;;10.21;44.83
50103;BME280;35993;52.604;10.078;2023-04-06T10:23:51;101329.91;;;10.24;44.54
50103;BME280;35993;52.604;10.078;2023-04-06T10:26:20;101326.41;;;10.30;44.22
50103;BME280;35993;52.604;10.078;2023-04-06T10:28:48;101321.91;;;10.44;44.42
50103;BME280;35993;52.604;10.078;2023-04-06T10:31:14;101333.84;;;10.50;44.80
50103;BME280;35993;52.604;10.078;2023-04-06T10:33:40;101324.06;;;10.56;43.80
50103;BME280;35993;52.604;10.078;2023-04-06T10:36:25;101322.38;;;10.55;43.61
50103;BME280;35993;52.604;10.078;2023-04-06T10:39:01;101311.16;;;10.71;42.19
50103;BME280;35993;52.604;10.078;2023-04-06T10:41:41;101314.75;;;10.72;43.03
50103;BME280;35993;52.604;10.078;2023-04-06T10:44:06;101320.56;;;10.75;42.96
50103;BME280;35993;52.604;10.078;2023-04-06T10:46:33;101319.28;;;10.58;43.10
50103;BME280;35993;52.604;10.078;2023-04-06T10:49:10;101312.19;;;10.63;42.71
50103;BME280;35993;52.604;10.078;2023-04-06T10:51:39;101312.84;;;10.72;42.79
50103;BME280;35993;52.604;10.078;2023-04-06T10:54:06;101315.44;;;10.94;43.64
50103;BME280;35993;52.604;10.078;2023-04-06T10:56:36;101317.06;;;10.81;43.83
50103;BME280;35993;52.604;10.078;2023-04-06T10:59:02;101315.75;;;10.64;44.32
50103;BME280;35993;52.604;10.078;2023-04-06T11:01:28;101314.41;;;10.95;43.96
50103;BME280;35993;52.604;10.078;2023-04-06T11:03:55;101303.38;;;11.23;43.14
50103;BME280;35993;52.604;10.078;2023-04-06T11:06:23;101310.91;;;11.41;43.40
50103;BME280;35993;52.604;10.078;2023-04-06T11:08:50;101304.44;;;11.36;42.31
50103;BME280;35993;52.604;10.078;2023-04-06T11:11:18;101293.13;;;11.39;41.90
50103;BME280;35993;52.604;10.078;2023-04-06T11:13:49;101299.81;;;11.43;41.78
50103;BME280;35993;52.604;10.078;2023-04-06T11:16:20;101279.97;;;11.49;41.26
50103;BME280;35993;52.604;10.078;2023-04-06T11:19:03;101288.94;;;11.43;41.06
50103;BME280;35993;52.604;10.078;2023-04-06T11:21:35;101278.06;;;11.43;41.18
50103;BME280;35993;52.604;10.078;2023-04-06T11:24:08;101287.28;;;11.42;41.22
50103;BME280;35993;52.604;10.078;2023-04-06T11:26:43;101285.19;;;11.51;41.17
50103;BME280;35993;52.604;10.078;2023-04-06T11:29:11;101268.03;;;11.57;40.67
50103;BME280;35993;52.604;10.078;2023-04-06T11:31:40;101273.25;;;11.72;40.46
50103;BME280;35993;52.604;10.078;2023-04-06T11:34:10;101277.66;;;11.73;40.47
50103;BME280;35993;52.604;10.078;2023-04-06T11:36:36;101272.41;;;11.85;40.73
50103;BME280;35993;52.604;10.078;2023-04-06T11:39:03;101279.31;;;11.87;41.01
50103;BME280;35993;52.604;10.078;2023-04-06T11:41:28;101277.66;;;11.73;40.91
50103;BME280;35993;52.604;10.078;2023-04-06T11:43:55;101271.81;;;11.69;40.49
50103;BME280;35993;52.604;10.078;2023-04-06T11:46:21;101265.94;;;11.66;40.49
50103;BME280;35993;52.604;10.078;2023-04-06T11:48:47;101258.81;;;11.71;40.29
50103;BME280;35993;52.604;10.078;2023-04-06T11:51:21;101262.16;;;11.87;40.13
50103;BME280;35993;52.604;10.078;2023-04-06T11:53:47;101261.13;;;11.81;40.70
50103;BME280;35993;52.604;10.078;2023-04-06T11:56:23;101268.22;;;11.89;40.78
50103;BME280;35993;52.604;10.078;2023-04-06T11:58:49;101270.06;;;12.08;40.55
50103;BME280;35993;52.604;10.078;2023-04-06T12:01:15;101272.41;;;12.05;40.76
50103;BME280;35993;52.604;10.078;2023-04-06T12:03:40;101268.81;;;12.18;40.84
50103;BME280;35993;52.604;10.078;2023-04-06T12:06:06;101264.56;;;12.28;40.22
50103;BME280;35993;52.604;10.078;2023-04-06T12:08:32;101254.78;;;12.14;40.40
50103;BME280;35993;52.604;10.078;2023-04-06T12:10:57;101261.63;;;12.30;39.89
50103;BME280;35993;52.604;10.078;2023-04-06T12:13:24;101237.31;;;12.42;37.42
50103;BME280;35993;52.604;10.078;2023-04-06T12:15:50;101234.19;;;12.38;37.20
50103;BME280;35993;52.604;10.078;2023-04-06T12:18:15;101232.69;;;12.42;37.35
50103;BME280;35993;52.604;10.078;2023-04-06T12:20:41;101238.78;;;12.38;38.15
50103;BME280;35993;52.604;10.078;2023-04-06T12:23:06;101230.75;;;12.56;37.84
50103;BME280;35993;52.604;10.078;2023-04-06T12:25:32;101233.66;;;12.09;37.46
50103;BME280;35993;52.604;10.078;2023-04-06T12:27:58;101233.47;;;12.04;37.61
50103;BME280;35993;52.604;10.078;2023-04-06T12:30:23;101222.75;;;12.16;37.67
50103;BME280;35993;52.604;10.078;2023-04-06T12:32:50;101233.19;;;12.26;37.74
50103;BME280;35993;52.604;10.078;2023-04-06T12:35:15;101234.22;;;12.32;37.67
50103;BME280;35993;52.604;10.078;2023-04-06T12:37:41;101224.75;;;12.41;37.62
50103;BME280;35993;52.604;10.078;2023-04-06T12:40:07;101230.66;;;12.70;38.06
50103;BME280;35993;52.604;10.078;2023-04-06T12:42:36;101249.38;;;12.98;38.02
50103;BME280;35993;52.604;10.078;2023-04-06T12:45:02;101227.72;;;13.03;36.65
50103;BME280;35993;52.604;10.078;2023-04-06T12:47:27;101229.94;;;12.88;37.06
50103;BME280;35993;52.604;10.078;2023-04-06T12:49:54;101227.00;;;12.89;36.57
50103;BME280;35993;52.604;10.078;2023-04-06T12:52:20;101217.09;;;12.95;36.43